首页
METAR-TAF:

METAR-TAF

机场 :

格林维尔, 南卡罗来纳州, 美国

纬度: 34-45-30N, 经度: 082-22-35W, 海拔: 291米

当前天气观测

该预报发布于1小时和3分钟前的23:47 UTC
静风
温度 3°C
湿度 87%
气压 1021 hPa
能見度: 16.1公里
散云层高于2000英尺
阴天层高于4700英尺

METAR: KGYH 102347Z 00000KT 10SM SCT020 OVC047 03/01 A3015

时间: 19:50 (00:50 UTC)


TAF: 丢失

超过4000个机场的气象观测和天气预报(METAR&TAF报告)。

可查询的气象台以黄色和红色小点在地图上表示。

将鼠标移到小点上方,可查看气象台名称。

然后点击查看天气观测和预报。

如需切换地图:点击带黑十字的绿色按钮放大地图;点击带横线的绿色按钮缩小地图;或者点击绿色箭头查看邻近地区的地图。


METAR-TAF: